createdAt,value
2022-08-05T00:00:46.735Z,22.50
2022-08-05T00:03:38.902Z,22.50
2022-08-05T00:06:32.170Z,22.50
2022-08-05T00:09:20.975Z,22.40
2022-08-05T00:12:13.174Z,22.40
2022-08-05T00:15:54.343Z,22.40
2022-08-05T00:18:09.446Z,22.30
2022-08-05T00:21:10.157Z,22.20
2022-08-05T00:24:10.561Z,22.20
2022-08-05T00:26:59.655Z,22.10
2022-08-05T00:29:49.396Z,22.00
2022-08-05T00:32:37.891Z,22.00
2022-08-05T00:35:32.946Z,21.90
2022-08-05T00:38:28.788Z,21.90
2022-08-05T00:41:51.939Z,21.90
2022-08-05T00:44:38.232Z,21.80
2022-08-05T00:47:53.042Z,21.80
2022-08-05T00:50:36.062Z,21.80
2022-08-05T00:53:59.895Z,21.80
2022-08-05T00:56:32.622Z,21.70
2022-08-05T00:59:21.226Z,21.60
2022-08-05T01:02:10.280Z,21.60
2022-08-05T01:05:00.628Z,21.60
2022-08-05T01:08:40.529Z,21.60
2022-08-05T01:11:07.002Z,21.60
2022-08-05T01:14:04.475Z,21.60
2022-08-05T01:17:03.672Z,21.60
2022-08-05T01:20:01.440Z,21.60
2022-08-05T01:23:14.283Z,21.60
2022-08-05T01:26:26.240Z,21.60
2022-08-05T01:29:23.117Z,21.60
2022-08-05T01:32:18.597Z,21.70
2022-08-05T01:35:12.146Z,21.70
2022-08-05T01:38:27.566Z,21.70
2022-08-05T01:41:21.713Z,21.60
2022-08-05T01:44:12.878Z,21.60
2022-08-05T01:47:05.320Z,21.60
2022-08-05T01:50:02.122Z,21.70
2022-08-05T01:52:53.787Z,21.70
2022-08-05T01:55:44.930Z,21.70
2022-08-05T01:58:44.920Z,21.80
2022-08-05T02:01:39.821Z,21.70
2022-08-05T02:04:31.072Z,21.60
2022-08-05T02:07:21.702Z,21.60
2022-08-05T02:10:17.219Z,21.60
2022-08-05T02:13:15.875Z,21.50
2022-08-05T02:16:08.940Z,21.50
2022-08-05T02:19:12.871Z,21.50
2022-08-05T02:22:10.208Z,21.40
2022-08-05T02:25:21.676Z,21.40
2022-08-05T02:28:14.730Z,21.40
2022-08-05T02:31:13.855Z,21.30
2022-08-05T02:34:09.324Z,21.30
2022-08-05T02:37:03.016Z,21.30
2022-08-05T02:39:55.637Z,21.30
2022-08-05T02:42:44.665Z,21.30
2022-08-05T02:45:52.095Z,21.30
2022-08-05T02:48:43.525Z,21.20
2022-08-05T02:52:03.393Z,21.20
2022-08-05T02:54:50.669Z,21.20
2022-08-05T02:58:09.950Z,21.20
2022-08-05T03:00:51.562Z,21.20
2022-08-05T03:04:08.888Z,21.10
2022-08-05T03:06:56.474Z,21.10
2022-08-05T03:09:51.650Z,21.10
2022-08-05T03:12:42.013Z,21.10
2022-08-05T03:15:31.020Z,21.10
2022-08-05T03:18:24.723Z,21.10
2022-08-05T03:21:17.962Z,21.10
2022-08-05T03:24:07.234Z,21.10
2022-08-05T03:26:56.566Z,21.10
2022-08-05T03:30:07.827Z,21.10
2022-08-05T03:32:56.010Z,21.10
2022-08-05T03:35:46.377Z,21.00
2022-08-05T03:38:37.466Z,21.00
2022-08-05T03:41:25.902Z,21.00
2022-08-05T03:44:21.515Z,21.00
2022-08-05T03:47:10.705Z,21.00
2022-08-05T03:50:01.773Z,21.00
2022-08-05T03:55:06.836Z,21.00
2022-08-05T03:56:27.917Z,20.90
2022-08-05T03:59:26.077Z,20.80
2022-08-05T04:02:39.067Z,20.70
2022-08-05T04:05:34.038Z,20.60
2022-08-05T04:08:35.207Z,20.40
2022-08-05T04:11:25.537Z,20.40
2022-08-05T04:14:34.006Z,20.30
2022-08-05T04:17:23.839Z,20.20
2022-08-05T04:20:25.448Z,20.30
2022-08-05T04:23:16.163Z,20.30
2022-08-05T04:26:05.118Z,20.40
2022-08-05T04:28:53.143Z,20.40
2022-08-05T04:31:41.735Z,20.40
2022-08-05T04:34:35.133Z,20.50
2022-08-05T04:38:01.616Z,20.50
2022-08-05T04:40:35.525Z,20.60
2022-08-05T04:43:23.548Z,20.60
2022-08-05T04:46:14.223Z,20.60
2022-08-05T04:49:16.519Z,20.60
2022-08-05T04:52:06.392Z,20.60
2022-08-05T04:54:57.084Z,20.60
2022-08-05T04:57:48.019Z,20.50
2022-08-05T05:00:40.468Z,20.40
2022-08-05T05:03:28.589Z,20.30
2022-08-05T05:06:35.868Z,20.20
2022-08-05T05:09:30.279Z,20.20
2022-08-05T05:12:20.190Z,20.10
2022-08-05T05:15:11.369Z,20.10
2022-08-05T05:18:05.830Z,20.00
2022-08-05T05:20:53.736Z,20.00
2022-08-05T05:24:04.292Z,20.10
2022-08-05T05:26:51.896Z,20.10
2022-08-05T05:30:03.243Z,20.20
2022-08-05T05:32:48.297Z,20.20
2022-08-05T05:35:39.577Z,20.30
2022-08-05T05:38:31.114Z,20.40
2022-08-05T05:41:19.574Z,20.50
2022-08-05T05:44:35.806Z,20.50
2022-08-05T05:47:21.572Z,20.60
2022-08-05T05:50:20.453Z,20.70
2022-08-05T05:53:22.007Z,20.70
2022-08-05T05:56:10.573Z,20.70
2022-08-05T05:58:58.445Z,20.80
2022-08-05T06:01:57.304Z,20.80
2022-08-05T06:04:49.184Z,20.90
2022-08-05T06:07:41.502Z,20.90
2022-08-05T06:10:36.629Z,21.00
2022-08-05T06:13:25.571Z,21.00
2022-08-05T06:16:31.438Z,21.00
2022-08-05T06:19:34.038Z,21.00
2022-08-05T06:22:25.704Z,21.00
2022-08-05T06:25:24.572Z,21.10
2022-08-05T06:28:21.908Z,21.20
2022-08-05T06:31:11.027Z,21.30
2022-08-05T06:34:06.971Z,21.30
2022-08-05T06:36:58.747Z,21.30
2022-08-05T06:39:46.833Z,21.30
2022-08-05T06:42:34.745Z,21.30
2022-08-05T06:45:44.884Z,21.40
2022-08-05T06:48:53.518Z,21.40
2022-08-05T06:51:40.774Z,21.50
2022-08-05T06:54:30.369Z,21.60
2022-08-05T06:57:57.676Z,21.60
2022-08-05T07:00:26.230Z,21.70
2022-08-05T07:03:17.754Z,21.60
2022-08-05T07:06:14.470Z,21.70
2022-08-05T07:09:04.160Z,21.70
2022-08-05T07:11:55.723Z,21.70
2022-08-05T07:15:06.062Z,21.70
2022-08-05T07:18:07.143Z,21.70
2022-08-05T07:21:05.439Z,21.80
2022-08-05T07:23:53.515Z,21.60
2022-08-05T07:26:42.185Z,21.70
2022-08-05T07:30:24.299Z,21.60
2022-08-05T07:32:40.286Z,21.50
2022-08-05T07:36:02.810Z,21.50
2022-08-05T07:38:43.329Z,21.70
2022-08-05T07:42:13.507Z,21.90
2022-08-05T07:44:41.231Z,22.00
2022-08-05T07:47:31.150Z,22.20
2022-08-05T07:50:32.515Z,22.30
2022-08-05T07:53:21.447Z,22.20
2022-08-05T07:56:39.223Z,22.30
2022-08-05T07:59:30.977Z,22.30
2022-08-05T08:02:31.313Z,22.50
2022-08-05T08:05:39.646Z,22.70
2022-08-05T08:08:28.517Z,22.70
2022-08-05T08:11:16.405Z,22.80
2022-08-05T08:14:04.477Z,22.90
2022-08-05T08:16:54.232Z,23.00
2022-08-05T08:20:22.274Z,23.20
2022-08-05T08:22:53.748Z,23.30
2022-08-05T08:25:59.338Z,23.30
2022-08-05T08:28:59.471Z,23.40
2022-08-05T08:31:50.849Z,23.40
2022-08-05T08:34:38.683Z,23.40
2022-08-05T08:37:28.299Z,23.40
2022-08-05T08:40:16.275Z,23.50
2022-08-05T08:43:21.261Z,23.50
2022-08-05T08:46:15.512Z,23.70
2022-08-05T08:50:22.916Z,23.80
2022-08-05T08:52:18.611Z,23.90
2022-08-05T08:55:11.128Z,24.10
2022-08-05T08:58:02.562Z,24.30
2022-08-05T09:00:51.713Z,24.20
2022-08-05T09:03:45.317Z,24.00
2022-08-05T09:06:36.393Z,24.00
2022-08-05T09:09:24.461Z,23.90
2022-08-05T09:12:20.676Z,23.90
2022-08-05T09:15:15.713Z,24.00
2022-08-05T09:18:03.643Z,24.00
2022-08-05T09:20:52.959Z,24.10
2022-08-05T09:23:43.634Z,24.10
2022-08-05T09:26:32.431Z,24.10
2022-08-05T09:29:21.791Z,24.20
2022-08-05T09:32:42.168Z,24.20
2022-08-05T09:35:27.658Z,24.20
2022-08-05T09:38:29.542Z,24.20
2022-08-05T09:41:17.625Z,24.30
2022-08-05T09:44:07.260Z,24.40
2022-08-05T09:47:12.470Z,24.50
2022-08-05T09:50:03.428Z,24.50
2022-08-05T09:52:59.310Z,24.50
2022-08-05T09:55:56.198Z,24.50
2022-08-05T09:58:57.577Z,24.50
2022-08-05T10:01:47.382Z,24.50
2022-08-05T10:04:41.035Z,24.60
2022-08-05T10:08:11.196Z,24.70
2022-08-05T10:10:56.279Z,24.80
2022-08-05T10:13:48.243Z,24.90
2022-08-05T10:16:43.044Z,25.00
2022-08-05T10:20:03.550Z,25.10
2022-08-05T10:22:51.266Z,25.00
2022-08-05T10:25:39.571Z,25.00
2022-08-05T10:28:29.151Z,24.80
2022-08-05T10:32:52.512Z,24.70
2022-08-05T10:34:30.195Z,24.60
2022-08-05T10:37:21.899Z,24.50
2022-08-05T10:40:28.007Z,24.40
2022-08-05T10:43:35.726Z,24.50
2022-08-05T10:46:25.061Z,24.50
2022-08-05T10:49:16.687Z,24.50
2022-08-05T10:52:10.391Z,24.50
2022-08-05T10:55:08.555Z,24.50
2022-08-05T10:58:09.460Z,24.20
2022-08-05T11:01:02.811Z,24.20
2022-08-05T11:04:07.966Z,24.10
2022-08-05T11:07:07.064Z,24.20
2022-08-05T11:10:04.006Z,24.20
2022-08-05T11:13:01.080Z,24.30
2022-08-05T11:16:01.048Z,24.40
2022-08-05T11:18:51.746Z,24.30
2022-08-05T11:21:48.688Z,24.40
2022-08-05T11:24:38.788Z,24.30
2022-08-05T11:27:51.790Z,24.00
2022-08-05T11:31:58.744Z,24.00
2022-08-05T11:34:51.010Z,24.00
2022-08-05T11:38:29.636Z,23.50
2022-08-05T11:41:34.835Z,23.30
2022-08-05T11:44:40.575Z,23.00
2022-08-05T11:47:48.179Z,22.80
2022-08-05T11:50:41.920Z,22.70
2022-08-05T11:53:40.756Z,22.80
2022-08-05T11:56:44.750Z,23.10
2022-08-05T11:59:49.345Z,23.30
2022-08-05T12:02:40.193Z,23.20
2022-08-05T12:05:36.444Z,23.00
2022-08-05T12:08:31.409Z,22.70
2022-08-05T12:11:22.616Z,22.60
2022-08-05T12:14:10.844Z,22.60
2022-08-05T12:16:58.823Z,22.40
2022-08-05T12:20:25.516Z,22.20
2022-08-05T12:23:09.864Z,21.90
2022-08-05T12:25:59.305Z,21.50
2022-08-05T12:28:47.315Z,21.30
2022-08-05T12:31:43.526Z,21.00
2022-08-05T12:34:39.668Z,20.80
2022-08-05T12:37:29.980Z,20.60
2022-08-05T12:40:26.836Z,20.40
2022-08-05T12:43:21.346Z,20.30
2022-08-05T12:46:26.433Z,20.30
2022-08-05T12:49:18.918Z,20.20
2022-08-05T12:52:23.865Z,20.10
2022-08-05T12:55:22.196Z,20.20
2022-08-05T12:58:48.267Z,20.20
2022-08-05T13:02:00.555Z,20.40
2022-08-05T13:04:54.300Z,20.40
2022-08-05T13:08:01.073Z,20.30
2022-08-05T13:10:50.770Z,20.20
2022-08-05T13:14:04.874Z,20.20
2022-08-05T13:16:50.569Z,20.20
2022-08-05T13:19:51.857Z,20.20
2022-08-05T13:22:43.271Z,20.00
2022-08-05T13:25:51.873Z,19.90
2022-08-05T13:28:42.913Z,19.90
2022-08-05T13:31:33.714Z,19.90
2022-08-05T13:34:40.921Z,19.80
2022-08-05T13:37:34.952Z,19.70
2022-08-05T13:40:36.959Z,19.40
2022-08-05T13:43:45.759Z,19.40
2022-08-05T13:47:04.942Z,19.20
2022-08-05T13:49:49.122Z,19.20
2022-08-05T13:52:37.242Z,19.40
2022-08-05T13:55:40.858Z,19.40
2022-08-05T13:58:31.213Z,19.40
2022-08-05T14:01:22.003Z,19.50
2022-08-05T14:04:34.667Z,19.50
2022-08-05T14:07:26.514Z,19.50
2022-08-05T14:10:32.353Z,19.50
2022-08-05T14:13:20.225Z,19.70
2022-08-05T14:16:11.863Z,19.80
2022-08-05T14:19:05.049Z,19.80
2022-08-05T14:22:08.449Z,19.80
2022-08-05T14:25:00.131Z,19.70
2022-08-05T14:27:49.405Z,19.60
2022-08-05T14:30:37.800Z,19.50
2022-08-05T14:33:26.411Z,19.50
2022-08-05T14:36:14.720Z,19.60
2022-08-05T14:39:05.794Z,19.60
2022-08-05T14:42:19.527Z,19.90
2022-08-05T14:45:07.713Z,20.10
2022-08-05T14:48:02.972Z,20.30
2022-08-05T14:50:54.103Z,20.30
2022-08-05T14:53:44.508Z,20.70
2022-08-05T14:56:34.671Z,21.10
2022-08-05T14:59:29.585Z,21.30
2022-08-05T15:02:23.605Z,21.30
2022-08-05T15:05:13.334Z,21.30
2022-08-05T15:08:11.268Z,21.50
2022-08-05T15:11:05.151Z,21.60
2022-08-05T15:13:55.445Z,22.00
2022-08-05T15:16:43.554Z,22.40
2022-08-05T15:19:34.887Z,22.50
2022-08-05T15:22:26.921Z,22.70
2022-08-05T15:25:15.897Z,23.20
2022-08-05T15:28:14.547Z,23.40
2022-08-05T15:31:05.771Z,23.40
2022-08-05T15:34:18.907Z,23.50
2022-08-05T15:37:06.434Z,23.30
2022-08-05T15:41:00.919Z,23.30
2022-08-05T15:43:19.778Z,23.50
2022-08-05T15:46:10.208Z,23.50
2022-08-05T15:49:00.826Z,23.60
2022-08-05T15:52:09.909Z,24.00
2022-08-05T15:55:06.588Z,24.00
2022-08-05T15:57:55.533Z,23.60
2022-08-05T16:01:11.996Z,23.30
2022-08-05T16:03:54.260Z,23.60
2022-08-05T16:06:42.190Z,23.90
2022-08-05T16:09:31.019Z,23.90
2022-08-05T16:12:20.389Z,23.80
2022-08-05T16:15:09.469Z,23.90
2022-08-05T16:17:58.263Z,24.10
2022-08-05T16:20:47.593Z,24.20
2022-08-05T16:23:54.131Z,24.40
2022-08-05T16:26:53.670Z,24.50
2022-08-05T16:29:45.506Z,24.60
2022-08-05T16:32:38.002Z,24.60
2022-08-05T16:35:32.184Z,24.70
2022-08-05T16:38:25.277Z,24.60
2022-08-05T16:42:12.316Z,24.50
2022-08-05T16:44:25.764Z,24.30
2022-08-05T16:47:29.092Z,24.10
2022-08-05T16:50:21.669Z,24.20
2022-08-05T16:53:12.641Z,24.20
2022-08-05T16:56:12.672Z,24.10
2022-08-05T16:59:08.134Z,23.90
2022-08-05T17:01:56.979Z,23.60
2022-08-05T17:04:44.943Z,23.30
2022-08-05T17:07:43.775Z,23.10
2022-08-05T17:10:41.362Z,22.90
2022-08-05T17:13:37.273Z,22.80
2022-08-05T17:16:32.673Z,22.80
2022-08-05T17:19:23.072Z,22.70
2022-08-05T17:22:11.694Z,22.50
2022-08-05T17:25:33.543Z,22.30
2022-08-05T17:28:21.149Z,22.10
2022-08-05T17:31:24.568Z,21.80
2022-08-05T17:34:20.004Z,21.60
2022-08-05T17:37:40.897Z,21.50
2022-08-05T17:40:27.656Z,21.50
2022-08-05T17:43:19.382Z,21.50
2022-08-05T17:46:30.376Z,21.60
2022-08-05T17:49:18.410Z,21.70
2022-08-05T17:52:06.346Z,21.80
2022-08-05T17:54:54.751Z,21.60
2022-08-05T17:57:48.525Z,21.50
2022-08-05T18:00:44.502Z,21.30
2022-08-05T18:04:03.658Z,21.20
2022-08-05T18:06:45.637Z,21.10
2022-08-05T18:09:58.708Z,21.00
2022-08-05T18:12:42.036Z,20.90
2022-08-05T18:15:34.148Z,20.80
2022-08-05T18:18:22.363Z,20.80
2022-08-05T18:21:19.933Z,20.80
2022-08-05T18:24:12.665Z,20.70
2022-08-05T18:27:02.787Z,20.70
2022-08-05T18:29:54.352Z,20.60
2022-08-05T18:32:42.947Z,20.50
2022-08-05T18:36:00.095Z,20.40
2022-08-05T18:38:52.466Z,20.40
2022-08-05T18:41:56.410Z,20.50
2022-08-05T18:44:55.495Z,20.40
2022-08-05T18:47:44.470Z,20.40
2022-08-05T18:50:54.554Z,20.40
2022-08-05T18:53:45.709Z,20.40
2022-08-05T18:56:39.372Z,20.30
2022-08-05T18:59:43.960Z,20.30
2022-08-05T19:02:38.435Z,20.30
2022-08-05T19:06:11.889Z,20.20
2022-08-05T19:08:35.638Z,20.20
2022-08-05T19:11:28.493Z,20.10
2022-08-05T19:14:59.295Z,20.10
2022-08-05T19:17:59.121Z,20.00
2022-08-05T19:20:47.121Z,19.90
2022-08-05T19:24:06.838Z,19.90
2022-08-05T19:26:54.185Z,19.80
2022-08-05T19:29:44.948Z,19.70
2022-08-05T19:32:34.082Z,19.60
2022-08-05T19:35:22.673Z,19.50
2022-08-05T19:38:11.163Z,19.40
2022-08-05T19:41:01.734Z,19.40
2022-08-05T19:44:06.984Z,19.30
2022-08-05T19:46:59.269Z,19.20
2022-08-05T19:49:48.398Z,19.10
2022-08-05T19:52:36.500Z,19.00
2022-08-05T19:56:12.446Z,19.00
2022-08-05T19:58:32.473Z,18.90
2022-08-05T20:01:40.317Z,18.80
2022-08-05T20:04:30.015Z,18.70
2022-08-05T20:07:47.416Z,18.70
2022-08-05T20:10:25.871Z,18.50
2022-08-05T20:13:15.546Z,18.40
2022-08-05T20:16:04.227Z,18.40
2022-08-05T20:18:55.280Z,18.30
2022-08-05T20:21:44.966Z,18.20
2022-08-05T20:24:34.292Z,18.20
2022-08-05T20:27:26.676Z,18.10
2022-08-05T20:30:14.923Z,18.10
2022-08-05T20:33:06.245Z,18.00
2022-08-05T20:35:56.436Z,17.90
2022-08-05T20:38:53.486Z,17.90
2022-08-05T20:41:46.714Z,17.70
2022-08-05T20:44:37.956Z,17.70
2022-08-05T20:47:32.258Z,17.60
2022-08-05T20:50:20.544Z,17.60
2022-08-05T20:53:16.230Z,17.50
2022-08-05T20:56:18.201Z,17.50
2022-08-05T20:59:26.201Z,17.40
2022-08-05T21:02:18.090Z,17.30
2022-08-05T21:05:06.710Z,17.30
2022-08-05T21:07:57.196Z,17.20
2022-08-05T21:10:49.000Z,17.20
2022-08-05T21:13:48.485Z,17.10
2022-08-05T21:16:44.478Z,17.10
2022-08-05T21:19:46.411Z,17.10
2022-08-05T21:22:35.952Z,17.10
2022-08-05T21:25:23.798Z,17.00
2022-08-05T21:28:23.601Z,17.00
2022-08-05T21:31:13.630Z,17.00
2022-08-05T21:34:01.511Z,16.90
2022-08-05T21:36:49.528Z,16.90
2022-08-05T21:39:40.689Z,16.90
2022-08-05T21:42:41.450Z,16.80
2022-08-05T21:45:56.241Z,16.70
2022-08-05T21:48:42.531Z,16.60
2022-08-05T21:52:21.708Z,16.50
2022-08-05T21:54:40.406Z,16.40
2022-08-05T21:57:31.365Z,16.30
2022-08-05T22:00:20.139Z,16.20
2022-08-05T22:03:14.427Z,16.10
2022-08-05T22:06:05.066Z,16.10
2022-08-05T22:08:53.382Z,16.10
2022-08-05T22:11:43.482Z,16.10
2022-08-05T22:14:37.922Z,15.90
2022-08-05T22:17:26.753Z,16.00
2022-08-05T22:20:16.575Z,16.10
2022-08-05T22:23:25.091Z,16.00
2022-08-05T22:26:50.719Z,16.00
2022-08-05T22:29:38.857Z,15.80
2022-08-05T22:32:29.200Z,15.70
2022-08-05T22:35:17.042Z,15.70
2022-08-05T22:38:06.894Z,15.70
2022-08-05T22:40:57.750Z,15.60
2022-08-05T22:43:46.729Z,15.60
2022-08-05T22:46:39.957Z,15.50
2022-08-05T22:50:17.368Z,15.40
2022-08-05T22:52:36.617Z,15.40
2022-08-05T22:55:27.001Z,15.40
2022-08-05T22:58:28.296Z,15.40
2022-08-05T23:01:16.816Z,15.30
2022-08-05T23:04:08.372Z,15.30
2022-08-05T23:06:56.638Z,15.20
2022-08-05T23:09:58.311Z,15.20
2022-08-05T23:12:54.437Z,15.10
2022-08-05T23:15:43.179Z,15.10
2022-08-05T23:18:38.551Z,15.10
2022-08-05T23:21:26.468Z,15.10
2022-08-05T23:24:31.017Z,15.10
2022-08-05T23:27:19.817Z,15.10
2022-08-05T23:30:13.127Z,15.00
2022-08-05T23:33:01.106Z,14.90
2022-08-05T23:35:49.051Z,14.90
2022-08-05T23:38:37.451Z,14.80
2022-08-05T23:41:25.229Z,14.80
2022-08-05T23:44:13.691Z,14.80
2022-08-05T23:47:15.339Z,14.80
2022-08-05T23:50:04.193Z,14.70
2022-08-05T23:52:57.512Z,14.60
2022-08-05T23:55:46.427Z,14.60
2022-08-05T23:58:36.966Z,14.50
